Time;durP1;ratioP1;P1;durP2;ratioP2;P2;SDS_P1;SDS_P2;PMS_P1;PMS_P2;Temp;Humidity;BMP_temperature;BMP_pressure;BME280_temperature;BME280_humidity;BME280_pressure;Samples;Min_cycle;Max_cycle;Signal;HPM_P1;HPM_P2
2022/02/18 00:00:54;;;;;;;;;6.75;4.50;;;;;13.72;56.63;101094.56;5112205;27;45485;-59
2022/02/18 00:03:24;;;;;;;;;7.75;3.25;;;;;13.73;56.53;101084.81;5090271;27;46214;-57
2022/02/18 00:05:50;;;;;;;;;8.25;5.00;;;;;13.73;56.56;101072.44;5109074;27;45405;-58
2022/02/18 00:08:15;;;;;;;;;7.50;4.00;;;;;13.69;57.29;101070.97;5110581;27;45409;-59
2022/02/18 00:10:41;;;;;;;;;4.00;3.50;;;;;13.68;57.43;101066.63;5110361;27;45483;-58
2022/02/18 00:13:08;;;;;;;;;12.25;10.75;;;;;13.64;57.80;101059.81;5106390;27;45386;-58
2022/02/18 00:15:33;;;;;;;;;14.00;10.25;;;;;13.61;57.77;101060.88;5110421;27;45601;-57
2022/02/18 00:18:01;;;;;;;;;12.00;5.00;;;;;13.62;58.13;101065.22;5111429;27;45362;-57
2022/02/18 00:20:27;;;;;;;;;4.75;3.25;;;;;13.62;58.17;101053.78;5111050;27;45366;-56
2022/02/18 00:22:52;;;;;;;;;8.00;5.00;;;;;13.63;58.24;101043.09;5108120;27;45339;-60
2022/02/18 00:25:18;;;;;;;;;10.50;5.75;;;;;13.63;57.89;101050.19;5109847;27;45358;-59
2022/02/18 00:27:44;;;;;;;;;9.50;4.00;;;;;13.61;58.25;101047.66;5092886;27;45506;-57
2022/02/18 00:30:11;;;;;;;;;13.00;5.50;;;;;13.60;58.36;101047.75;5110939;27;45615;-58
2022/02/18 00:32:37;;;;;;;;;13.00;7.50;;;;;13.57;58.45;101037.34;5108095;27;45420;-55
2022/02/18 00:35:03;;;;;;;;;12.25;4.50;;;;;13.54;58.42;101038.41;5105149;27;45520;-57
2022/02/18 00:37:29;;;;;;;;;12.50;4.00;;;;;13.51;58.89;101036.00;5111092;27;45397;-61
2022/02/18 00:39:56;;;;;;;;;6.00;3.00;;;;;13.49;58.79;101031.72;5112091;27;45410;-57
2022/02/18 00:42:22;;;;;;;;;4.00;3.00;;;;;13.47;59.27;101031.84;5107576;27;45326;-57
2022/02/18 00:44:48;;;;;;;;;7.25;3.75;;;;;13.44;59.23;101020.63;5107835;27;45289;-58
2022/02/18 00:47:13;;;;;;;;;9.00;4.00;;;;;13.41;59.48;101017.19;5104874;27;45390;-58
2022/02/18 00:49:39;;;;;;;;;4.25;3.00;;;;;13.42;59.46;101007.47;5109345;27;45477;-57
2022/02/18 00:52:04;;;;;;;;;4.25;3.25;;;;;13.43;59.60;100995.97;5108570;27;45421;-58
2022/02/18 00:54:30;;;;;;;;;5.00;3.00;;;;;13.45;59.63;100986.09;5111032;27;45635;-58
2022/02/18 00:56:56;;;;;;;;;9.25;4.00;;;;;13.48;59.69;100982.41;5092949;27;45672;-58
2022/02/18 00:59:22;;;;;;;;;12.25;3.00;;;;;13.48;59.88;100982.41;5105720;27;45536;-57
2022/02/18 01:01:47;;;;;;;;;6.75;5.50;;;;;13.46;60.42;100971.06;5107271;27;45514;-58
2022/02/18 01:04:13;;;;;;;;;10.50;5.00;;;;;13.47;59.97;100970.97;5105218;27;45644;-59
2022/02/18 01:06:40;;;;;;;;;7.50;4.00;;;;;13.46;60.47;100966.63;5105642;27;45457;-60
2022/02/18 01:09:06;;;;;;;;;7.00;5.00;;;;;13.46;60.45;100965.78;5109433;27;45671;-58
2022/02/18 01:11:31;;;;;;;;;4.50;2.50;;;;;13.47;60.58;100964.81;5109878;27;46127;-60
2022/02/18 01:13:58;;;;;;;;;9.50;3.25;;;;;13.48;60.65;100948.00;5109290;27;45500;-59
2022/02/18 01:16:23;;;;;;;;;7.00;3.75;;;;;13.49;60.71;100944.38;5109561;27;45460;-59
2022/02/18 01:18:49;;;;;;;;;13.50;6.25;;;;;13.51;60.57;100938.06;5105379;27;45416;-59
2022/02/18 01:21:15;;;;;;;;;9.00;5.00;;;;;13.52;60.63;100928.31;5108410;27;46647;-59
2022/02/18 01:23:41;;;;;;;;;9.75;4.00;;;;;13.53;60.66;100924.72;5110403;27;45316;-59
2022/02/18 01:26:06;;;;;;;;;9.25;6.50;;;;;13.50;60.96;100906.38;5110565;27;45385;-59
2022/02/18 01:28:32;;;;;;;;;7.25;5.00;;;;;13.48;60.85;100895.91;5107706;27;45380;-59
2022/02/18 01:30:58;;;;;;;;;7.25;3.00;;;;;13.50;60.75;100898.44;5107575;27;46109;-59
2022/02/18 01:33:23;;;;;;;;;7.00;4.25;;;;;13.51;60.78;100886.91;5082214;27;45342;-59
2022/02/18 01:35:50;;;;;;;;;7.00;4.25;;;;;13.51;61.05;100889.56;5081564;28;45477;-59
2022/02/18 01:38:17;;;;;;;;;6.50;3.75;;;;;13.50;60.97;100879.91;5080575;27;45271;-59
2022/02/18 01:40:43;;;;;;;;;8.50;3.00;;;;;13.49;60.94;100887.00;5086018;27;45333;-59
2022/02/18 01:43:08;;;;;;;;;4.50;4.00;;;;;13.48;61.01;100876.53;5082754;27;45339;-59
2022/02/18 01:45:34;;;;;;;;;5.75;4.75;;;;;13.46;61.58;100852.84;5089039;27;45435;-59
2022/02/18 01:48:00;;;;;;;;;7.50;5.25;;;;;13.40;61.94;100843.50;5101254;27;45475;-59
2022/02/18 01:50:25;;;;;;;;;5.50;3.00;;;;;13.39;62.16;100839.19;5096711;27;45305;-59
2022/02/18 01:52:53;;;;;;;;;7.75;4.00;;;;;13.36;62.46;100838.56;5081535;28;45301;-59
2022/02/18 01:55:21;;;;;;;;;5.75;3.50;;;;;13.37;63.01;100843.75;5081229;28;45327;-59
2022/02/18 01:57:58;;;;;;;;;6.50;3.25;;;;;13.39;63.50;100833.03;5092649;27;45388;-59
2022/02/18 02:00:26;;;;;;;;;5.00;3.00;;;;;13.38;63.92;100831.34;5087556;27;46223;-59
2022/02/18 02:02:52;;;;;;;;;4.50;4.25;;;;;13.35;64.07;100827.13;5087728;27;45354;-59
2022/02/18 02:05:19;;;;;;;;;4.00;4.00;;;;;13.33;64.95;100823.72;5101373;27;45337;-59
2022/02/18 02:07:45;;;;;;;;;4.50;3.25;;;;;13.31;65.56;100820.34;5076064;27;45340;-59
2022/02/18 02:10:12;;;;;;;;;8.50;3.00;;;;;13.30;65.82;100816.00;5081129;28;45305;-59
2022/02/18 02:12:50;;;;;;;;;8.50;5.50;;;;;13.28;66.27;100804.69;5081144;27;45321;-59
2022/02/18 02:15:17;;;;;;;;;5.00;4.00;;;;;13.27;66.72;100813.59;5081279;28;45423;-59
2022/02/18 02:17:44;;;;;;;;;7.00;4.00;;;;;13.25;67.05;100807.53;5062579;28;45662;-59
2022/02/18 02:20:10;;;;;;;;;5.75;4.75;;;;;13.20;67.50;100796.44;5080909;28;45523;-59
2022/02/18 02:22:37;;;;;;;;;6.25;5.00;;;;;13.20;67.95;100787.66;5083406;27;45220;-59
2022/02/18 02:25:03;;;;;;;;;9.25;4.75;;;;;13.16;68.30;100781.69;5083394;27;45376;-59
2022/02/18 02:27:30;;;;;;;;;5.00;4.75;;;;;13.13;68.57;100773.97;5083067;27;45640;-59
2022/02/18 02:29:56;;;;;;;;;8.25;5.00;;;;;13.12;68.97;100780.22;5073294;28;47119;-59
2022/02/18 02:32:22;;;;;;;;;6.75;4.25;;;;;13.10;69.46;100782.09;5097012;27;45509;-59
2022/02/18 02:34:48;;;;;;;;;4.00;4.00;;;;;13.06;69.58;100776.19;5101401;27;45413;-59
2022/02/18 02:37:14;;;;;;;;;10.25;5.00;;;;;13.06;69.79;100772.72;5101308;27;45228;-59
2022/02/18 02:39:40;;;;;;;;;3.00;3.00;;;;;13.05;70.06;100769.22;5101148;27;45346;-59
2022/02/18 02:42:07;;;;;;;;;10.00;5.75;;;;;13.07;70.19;100763.81;5084467;27;45354;-59
2022/02/18 02:44:33;;;;;;;;;8.50;4.00;;;;;13.10;70.08;100759.16;5080845;28;45247;-59
2022/02/18 02:46:59;;;;;;;;;7.50;5.25;;;;;13.10;70.43;100735.34;5080402;28;45477;-59
2022/02/18 02:49:25;;;;;;;;;4.50;3.25;;;;;13.09;70.52;100720.44;5091179;27;45457;-59
2022/02/18 02:51:50;;;;;;;;;5.75;5.00;;;;;13.09;70.72;100709.84;5096370;27;45360;-59
2022/02/18 02:54:17;;;;;;;;;5.25;4.00;;;;;13.08;70.90;100709.97;5062040;27;45388;-59
2022/02/18 02:56:42;;;;;;;;;5.25;4.25;;;;;13.09;71.13;100715.16;5104834;27;45313;-59
2022/02/18 02:59:08;;;;;;;;;5.00;2.75;;;;;13.10;71.56;100698.31;5104410;27;45543;-59
2022/02/18 03:01:34;;;;;;;;;4.00;4.00;;;;;13.10;71.54;100679.81;5104522;27;45193;-60
2022/02/18 03:04:00;;;;;;;;;5.50;4.50;;;;;13.11;71.78;100670.94;5103111;27;45303;-59
2022/02/18 03:06:26;;;;;;;;;3.00;3.00;;;;;13.11;72.04;100673.59;5077964;28;45204;-59
2022/02/18 03:08:51;;;;;;;;;5.00;4.75;;;;;13.14;72.17;100664.59;5097432;27;45401;-59
2022/02/18 03:11:17;;;;;;;;;4.75;4.75;;;;;13.17;72.15;100676.75;5083955;28;45241;-59
2022/02/18 03:13:47;;;;;;;;;6.00;3.00;;;;;13.18;72.47;100662.56;5084032;27;45198;-59
2022/02/18 03:16:14;;;;;;;;;8.50;3.75;;;;;13.18;72.35;100667.84;5083996;27;45347;-59
2022/02/18 03:18:40;;;;;;;;;6.75;2.50;;;;;13.19;72.32;100654.50;5083876;28;45205;-59
2022/02/18 03:21:06;;;;;;;;;6.00;5.00;;;;;13.20;72.73;100648.31;5083717;27;45281;-59
2022/02/18 03:23:33;;;;;;;;;5.75;4.00;;;;;13.24;72.65;100647.13;5083850;27;45256;-59
2022/02/18 03:25:59;;;;;;;;;4.00;4.00;;;;;13.27;72.70;100643.41;5083851;27;45473;-59
2022/02/18 03:28:24;;;;;;;;;6.00;4.25;;;;;13.26;73.12;100637.28;5083555;28;46309;-59
2022/02/18 03:30:50;;;;;;;;;3.00;3.00;;;;;13.29;73.09;100636.22;5083538;27;45349;-59
2022/02/18 03:33:15;;;;;;;;;2.00;2.00;;;;;13.29;73.44;100638.88;5083860;27;45459;-59
2022/02/18 03:35:41;;;;;;;;;3.25;3.00;;;;;13.30;73.65;100638.75;5083654;27;45332;-59
2022/02/18 03:38:07;;;;;;;;;3.00;3.00;;;;;13.32;73.86;100631.56;5083355;27;45471;-59
2022/02/18 03:40:34;;;;;;;;;2.50;2.00;;;;;13.34;73.84;100629.63;5090019;27;45484;-59
2022/02/18 03:43:00;;;;;;;;;3.00;3.00;;;;;13.36;73.84;100626.91;5065276;28;45303;-59
2022/02/18 03:45:26;;;;;;;;;3.00;1.25;;;;;13.37;74.03;100623.28;5083524;27;45189;-59
2022/02/18 03:47:53;;;;;;;;;1.50;1.50;;;;;13.40;74.12;100615.97;5083122;28;46336;-59
2022/02/18 03:50:19;;;;;;;;;2.00;1.00;;;;;13.40;74.15;100612.47;5099341;27;45463;-59
2022/02/18 03:52:44;;;;;;;;;0.00;0.00;;;;;13.46;74.01;100611.19;5088011;27;45556;-59
2022/02/18 03:55:10;;;;;;;;;2.00;1.00;;;;;13.49;73.60;100606.50;5083468;28;45460;-59
2022/02/18 03:57:35;;;;;;;;;0.00;0.00;;;;;13.52;73.65;100605.47;5083092;27;45477;-59
2022/02/18 04:00:02;;;;;;;;;1.00;0.00;;;;;13.54;73.27;100590.31;5082491;28;45320;-59
2022/02/18 04:02:28;;;;;;;;;2.00;0.00;;;;;13.58;73.02;100586.44;5083070;28;45371;-59
2022/02/18 04:04:53;;;;;;;;;0.00;0.00;;;;;13.59;72.93;100581.06;5083034;27;45472;-59
2022/02/18 04:07:19;;;;;;;;;0.00;0.00;;;;;13.60;72.98;100582.75;5082878;27;45371;-59
2022/02/18 04:09:45;;;;;;;;;0.25;0.00;;;;;13.60;72.19;100584.56;5092606;27;45220;-59
2022/02/18 04:12:10;;;;;;;;;0.00;0.00;;;;;13.63;72.09;100579.03;5083196;28;45284;-59
2022/02/18 04:14:36;;;;;;;;;0.25;0.00;;;;;13.65;72.27;100571.81;5083196;28;45514;-59
2022/02/18 04:17:01;;;;;;;;;0.00;0.00;;;;;13.64;72.02;100560.38;5082816;27;45391;-59
2022/02/18 04:19:27;;;;;;;;;0.00;0.00;;;;;13.71;72.02;100560.75;5082434;27;45342;-59
2022/02/18 04:21:52;;;;;;;;;0.00;0.00;;;;;13.72;71.95;100549.22;5082905;27;45348;-59
2022/02/18 04:24:18;;;;;;;;;0.00;0.00;;;;;13.72;72.00;100543.91;5082740;27;45217;-59
2022/02/18 04:26:43;;;;;;;;;0.00;0.00;;;;;13.72;71.88;100545.72;5082893;27;45435;-59
2022/02/18 04:29:10;;;;;;;;;0.00;0.00;;;;;13.72;71.67;100546.56;5082793;27;45324;-60
2022/02/18 04:31:35;;;;;;;;;0.00;0.00;;;;;13.71;71.18;100538.75;5082659;28;45274;-59
2022/02/18 04:34:01;;;;;;;;;0.00;0.00;;;;;13.69;71.43;100539.72;5082632;27;45291;-59
2022/02/18 04:36:26;;;;;;;;;0.00;0.00;;;;;13.72;71.78;100532.50;5082637;28;45376;-59
2022/02/18 04:38:53;;;;;;;;;0.00;0.00;;;;;13.73;71.41;100529.72;5072140;27;45276;-59
2022/02/18 04:41:19;;;;;;;;;0.00;0.00;;;;;13.73;71.26;100515.63;5084601;27;45670;-59
2022/02/18 04:43:44;;;;;;;;;0.00;0.00;;;;;13.74;71.43;100530.56;5103087;27;45224;-59
2022/02/18 04:46:10;;;;;;;;;0.00;0.00;;;;;13.74;71.40;100517.31;5102761;27;46381;-59
2022/02/18 04:48:35;;;;;;;;;0.50;0.00;;;;;13.74;71.36;100517.31;5102619;27;45375;-59
2022/02/18 04:51:01;;;;;;;;;0.00;0.00;;;;;13.74;71.11;100523.47;5101298;27;45295;-59
2022/02/18 04:53:26;;;;;;;;;0.00;0.00;;;;;13.75;71.08;100516.41;5082562;28;45550;-58
2022/02/18 04:55:52;;;;;;;;;0.00;0.00;;;;;13.74;70.81;100509.38;5082252;28;45623;-58
2022/02/18 04:58:17;;;;;;;;;0.25;0.00;;;;;13.75;71.11;100521.69;5082223;27;45289;-58
2022/02/18 05:00:43;;;;;;;;;1.00;0.00;;;;;13.76;70.85;100534.81;5082253;27;45321;-57
2022/02/18 05:03:08;;;;;;;;;0.00;0.00;;;;;13.75;70.74;100514.59;5082365;28;45606;-58
2022/02/18 05:05:34;;;;;;;;;1.00;0.00;;;;;13.75;70.77;100503.16;5081824;28;46153;-58
2022/02/18 05:07:59;;;;;;;;;0.00;0.00;;;;;13.75;71.09;100504.00;5054835;27;45302;-58
2022/02/18 05:10:25;;;;;;;;;0.75;0.00;;;;;13.73;71.03;100492.66;5087720;27;45257;-58
2022/02/18 05:12:50;;;;;;;;;1.00;0.00;;;;;13.75;71.07;100500.50;5082173;27;45363;-59
2022/02/18 05:15:16;;;;;;;;;0.00;0.00;;;;;13.72;70.53;100484.84;5081947;28;46607;-58
2022/02/18 05:17:46;;;;;;;;;0.00;0.00;;;;;13.69;71.11;100484.13;5080523;28;45441;-58
2022/02/18 05:20:12;;;;;;;;;0.00;0.00;;;;;13.70;71.24;100492.91;5083266;27;45378;-58
2022/02/18 05:22:38;;;;;;;;;0.00;0.00;;;;;13.67;71.16;100470.16;5094150;27;45213;-58
2022/02/18 05:25:04;;;;;;;;;0.00;0.00;;;;;13.67;71.03;100478.13;5096776;27;45481;-58
2022/02/18 05:27:29;;;;;;;;;0.00;0.00;;;;;13.67;71.24;100467.53;5102333;27;45247;-59
2022/02/18 05:29:55;;;;;;;;;1.00;0.00;;;;;13.69;71.40;100470.88;5102263;27;45447;-60
2022/02/18 05:32:20;;;;;;;;;0.00;0.00;;;;;13.69;71.31;100452.34;5102262;27;45560;-58
2022/02/18 05:34:46;;;;;;;;;0.00;0.00;;;;;13.69;71.09;100454.16;5101748;27;45866;-59
2022/02/18 05:37:12;;;;;;;;;0.00;0.00;;;;;13.67;71.42;100443.69;5102140;27;45392;-59
2022/02/18 05:39:37;;;;;;;;;0.00;0.00;;;;;13.69;71.49;100446.22;5101149;27;45322;-58
2022/02/18 05:42:03;;;;;;;;;1.00;0.00;;;;;13.71;71.25;100441.66;5081976;28;45504;-58
2022/02/18 05:44:31;;;;;;;;;0.00;0.00;;;;;13.72;71.35;100443.31;5081500;27;46268;-58
2022/02/18 05:46:58;;;;;;;;;1.25;0.00;;;;;13.72;71.36;100429.25;5081217;28;45299;-59
2022/02/18 05:49:24;;;;;;;;;0.00;0.00;;;;;13.69;71.67;100430.34;5090009;27;45440;-59
2022/02/18 05:51:50;;;;;;;;;1.50;0.00;;;;;13.68;71.64;100426.00;5093529;27;45402;-59
2022/02/18 05:54:15;;;;;;;;;0.00;0.00;;;;;13.66;71.75;100410.22;5081144;28;45378;-59
2022/02/18 05:56:41;;;;;;;;;0.00;0.00;;;;;13.67;71.74;100408.44;5081362;28;45358;-59
2022/02/18 05:59:06;;;;;;;;;0.50;0.00;;;;;13.67;71.71;100408.44;5081341;27;45474;-59
2022/02/18 06:01:32;;;;;;;;;0.00;0.00;;;;;13.69;71.70;100403.88;5070756;27;45362;-59
2022/02/18 06:03:57;;;;;;;;;0.00;0.00;;;;;13.71;71.52;100398.44;5086467;27;45433;-59
2022/02/18 06:06:23;;;;;;;;;0.00;0.00;;;;;13.72;71.52;100382.44;5081237;28;45589;-59
2022/02/18 06:08:48;;;;;;;;;0.00;0.00;;;;;13.73;71.50;100381.47;5090420;27;45293;-59
2022/02/18 06:11:14;;;;;;;;;0.00;0.00;;;;;13.74;71.21;100366.44;5081452;27;45280;-59
2022/02/18 06:13:39;;;;;;;;;0.25;0.00;;;;;13.71;71.32;100364.88;5102966;27;46170;-58
2022/02/18 06:16:05;;;;;;;;;0.75;0.00;;;;;13.72;70.92;100353.31;5081362;27;45193;-59
2022/02/18 06:18:30;;;;;;;;;0.00;0.00;;;;;13.71;71.30;100358.75;5081186;28;45493;-59
2022/02/18 06:20:56;;;;;;;;;1.00;1.00;;;;;13.68;71.36;100352.75;5088514;27;45462;-59
2022/02/18 06:23:21;;;;;;;;;0.00;0.00;;;;;13.69;71.31;100357.06;5087550;27;46201;-59
2022/02/18 06:25:47;;;;;;;;;1.00;0.00;;;;;13.69;71.30;100351.78;5096600;27;45315;-59
2022/02/18 06:28:13;;;;;;;;;0.00;0.00;;;;;13.68;71.26;100363.31;5097453;27;45355;-59
2022/02/18 06:30:40;;;;;;;;;1.50;0.00;;;;;13.71;71.07;100354.28;5094419;27;45351;-59
2022/02/18 06:33:06;;;;;;;;;0.00;0.00;;;;;13.72;71.24;100337.44;5096277;27;45396;-59
2022/02/18 06:35:33;;;;;;;;;2.00;0.00;;;;;13.73;71.02;100347.06;5091559;27;45540;-59
2022/02/18 06:37:58;;;;;;;;;0.00;0.00;;;;;13.75;70.95;100354.91;5078088;27;45327;-59
2022/02/18 06:40:24;;;;;;;;;0.00;0.00;;;;;13.75;70.67;100346.97;5102536;27;45491;-60
2022/02/18 06:42:50;;;;;;;;;0.00;0.00;;;;;13.75;70.64;100339.88;5078617;27;47626;-59
2022/02/18 06:45:18;;;;;;;;;0.00;0.00;;;;;13.78;70.78;100347.56;5099992;27;45211;-58
2022/02/18 06:47:47;;;;;;;;;0.00;0.00;;;;;13.80;70.65;100332.38;5094088;27;45344;-58
2022/02/18 06:50:15;;;;;;;;;1.25;0.00;;;;;13.82;70.60;100327.81;5099284;27;45542;-58
2022/02/18 06:52:41;;;;;;;;;0.00;0.00;;;;;13.82;70.37;100321.66;5089104;27;45384;-59
2022/02/18 06:55:08;;;;;;;;;1.00;0.00;;;;;13.81;70.31;100309.41;5084060;27;45223;-59
2022/02/18 06:57:37;;;;;;;;;0.00;0.00;;;;;13.80;70.26;100311.22;5084297;27;45235;-58
2022/02/18 07:00:03;;;;;;;;;0.00;0.00;;;;;13.81;70.29;100312.88;5084367;27;45515;-58
2022/02/18 07:02:29;;;;;;;;;0.50;0.00;;;;;13.79;70.10;100304.22;5083889;28;46053;-59
2022/02/18 07:04:54;;;;;;;;;1.00;0.00;;;;;13.79;70.14;100292.81;5093707;27;45283;-59
2022/02/18 07:07:20;;;;;;;;;1.00;0.00;;;;;13.79;69.98;100291.00;5114148;27;45640;-59
2022/02/18 07:09:45;;;;;;;;;0.00;0.00;;;;;13.83;70.12;100300.41;5113392;27;45255;-60
2022/02/18 07:12:11;;;;;;;;;0.00;0.00;;;;;13.85;70.04;100310.84;5110428;27;45216;-59
2022/02/18 07:14:36;;;;;;;;;1.00;0.00;;;;;13.86;69.92;100305.44;5106512;27;45263;-59
2022/02/18 07:17:04;;;;;;;;;0.00;0.00;;;;;13.86;69.79;100299.28;5083716;27;45348;-59
2022/02/18 07:19:30;;;;;;;;;0.00;0.00;;;;;13.84;69.55;100296.78;5083698;27;45566;-59
2022/02/18 07:21:56;;;;;;;;;0.25;0.25;;;;;13.87;69.77;100296.53;5083669;28;46273;-59
2022/02/18 07:24:21;;;;;;;;;2.00;0.50;;;;;13.88;69.67;100294.72;5083761;27;45363;-59
2022/02/18 07:26:47;;;;;;;;;0.00;0.00;;;;;13.89;69.19;100280.50;5083477;27;45314;-59
2022/02/18 07:29:12;;;;;;;;;5.25;2.75;;;;;13.88;69.38;100279.66;5083859;28;45457;-59
2022/02/18 07:31:38;;;;;;;;;0.00;0.00;;;;;13.88;69.33;100262.94;5083409;27;45739;-59
2022/02/18 07:34:03;;;;;;;;;0.00;0.00;;;;;13.88;69.34;100276.19;5083522;27;45370;-59
2022/02/18 07:36:29;;;;;;;;;0.00;0.00;;;;;13.88;69.39;100273.53;5082050;27;45482;-59
2022/02/18 07:38:54;;;;;;;;;0.25;0.00;;;;;13.88;69.35;100284.13;5085744;27;45464;-59
2022/02/18 07:41:20;;;;;;;;;0.75;0.50;;;;;13.89;69.42;100269.91;5087948;27;45242;-59
2022/02/18 07:43:45;;;;;;;;;0.00;0.00;;;;;13.89;69.51;100285.81;5083595;27;45301;-59
2022/02/18 07:46:11;;;;;;;;;1.00;0.00;;;;;13.92;69.03;100282.94;5083284;27;45536;-59
2022/02/18 07:48:37;;;;;;;;;0.00;0.00;;;;;13.96;69.11;100284.34;5085262;27;45246;-59
2022/02/18 07:51:03;;;;;;;;;0.00;0.00;;;;;13.99;69.11;100267.38;5083530;27;46308;-59
2022/02/18 07:53:28;;;;;;;;;0.50;0.00;;;;;14.04;69.38;100273.13;5083279;28;45174;-56
2022/02/18 07:55:54;;;;;;;;;0.00;0.00;;;;;14.05;68.84;100274.81;5096187;27;45361;-57
2022/02/18 07:58:20;;;;;;;;;0.25;0.25;;;;;14.07;68.92;100272.91;5114066;27;45377;-58
2022/02/18 08:00:46;;;;;;;;;0.75;0.75;;;;;14.05;68.56;100254.47;5110177;27;45777;-58
2022/02/18 08:03:11;;;;;;;;;0.00;0.00;;;;;14.07;68.79;100241.13;5112077;27;45326;-58
2022/02/18 08:05:37;;;;;;;;;0.00;0.00;;;;;14.12;68.77;100236.28;5109238;27;45317;-60
2022/02/18 08:08:03;;;;;;;;;0.75;0.00;;;;;14.16;68.13;100224.47;5106194;27;45451;-59
2022/02/18 08:10:28;;;;;;;;;0.00;0.00;;;;;14.16;68.06;100211.22;5106704;27;45863;-59
2022/02/18 08:12:54;;;;;;;;;0.25;0.25;;;;;14.13;68.01;100220.25;5109482;27;45248;-59
2022/02/18 08:15:20;;;;;;;;;0.25;0.25;;;;;14.14;68.09;100213.13;5109699;27;45228;-57
2022/02/18 08:17:46;;;;;;;;;0.00;0.00;;;;;14.13;67.62;100206.16;5111330;27;45463;-58
2022/02/18 08:20:12;;;;;;;;;0.75;0.00;;;;;14.11;67.88;100202.81;5111419;27;46112;-60
2022/02/18 08:22:38;;;;;;;;;0.00;0.00;;;;;14.14;67.84;100223.72;5107638;27;45368;-58
2022/02/18 08:25:05;;;;;;;;;0.00;0.00;;;;;14.16;67.73;100211.22;5108916;27;45479;-57
2022/02/18 08:27:31;;;;;;;;;3.25;0.00;;;;;14.19;67.61;100208.31;5107380;27;45293;-59
2022/02/18 08:30:06;;;;;;;;;0.00;0.00;;;;;14.22;67.55;100210.72;5112027;27;45306;-60
2022/02/18 08:32:33;;;;;;;;;2.00;0.00;;;;;14.27;67.37;100205.88;5111922;27;45355;-59
2022/02/18 08:34:59;;;;;;;;;3.00;0.00;;;;;14.28;67.48;100210.19;5105112;27;45277;-62
2022/02/18 08:37:25;;;;;;;;;0.00;0.00;;;;;14.31;66.99;100222.38;5091581;27;45528;-62
2022/02/18 08:39:50;;;;;;;;;0.00;0.00;;;;;14.34;67.29;100217.63;5108829;27;46017;-60
2022/02/18 08:42:16;;;;;;;;;0.00;0.00;;;;;14.38;67.23;100210.28;5112799;27;45307;-60
2022/02/18 08:44:41;;;;;;;;;0.00;0.00;;;;;14.36;67.08;100204.25;5111017;27;45225;-60
2022/02/18 08:47:07;;;;;;;;;0.00;0.00;;;;;14.37;67.24;100214.72;5110308;27;45222;-60
2022/02/18 08:49:34;;;;;;;;;1.00;0.00;;;;;14.42;67.19;100217.00;5107374;27;45293;-62
2022/02/18 08:52:00;;;;;;;;;0.75;0.00;;;;;14.40;67.22;100224.25;5110821;27;45429;-58
2022/02/18 08:54:26;;;;;;;;;0.00;0.00;;;;;14.41;67.04;100210.88;5111974;27;45320;-59
2022/02/18 08:56:52;;;;;;;;;10.50;9.50;;;;;14.40;67.14;100211.00;5111046;27;45385;-59
2022/02/18 08:59:17;;;;;;;;;1.75;0.75;;;;;14.37;66.97;100211.22;5106383;27;45391;-61
2022/02/18 09:01:43;;;;;;;;;0.00;0.00;;;;;14.36;66.91;100217.50;5109086;27;45650;-59
2022/02/18 09:04:09;;;;;;;;;0.00;0.00;;;;;14.31;67.10;100203.81;5108223;27;45367;-60
2022/02/18 09:06:35;;;;;;;;;0.00;0.00;;;;;14.27;67.59;100218.28;5112204;27;45615;-60
2022/02/18 09:09:00;;;;;;;;;0.00;0.00;;;;;14.26;67.76;100206.84;5108819;27;45998;-63
2022/02/18 09:11:26;;;;;;;;;0.00;0.00;;;;;14.24;68.32;100203.50;5109748;27;45417;-62
2022/02/18 09:13:51;;;;;;;;;0.00;0.00;;;;;14.21;68.69;100206.38;5108847;27;45418;-61
2022/02/18 09:16:19;;;;;;;;;0.00;0.00;;;;;14.20;68.79;100202.03;5093387;27;45517;-60
2022/02/18 09:18:45;;;;;;;;;1.00;0.00;;;;;14.18;69.09;100188.94;5090827;27;46836;-60
2022/02/18 09:21:11;;;;;;;;;0.00;0.00;;;;;14.16;69.41;100192.69;5110314;27;45300;-60
2022/02/18 09:23:37;;;;;;;;;0.25;0.25;;;;;14.16;69.44;100193.53;5105263;27;45339;-60
2022/02/18 09:26:03;;;;;;;;;1.00;0.00;;;;;14.17;69.71;100181.97;5108510;27;45307;-58
2022/02/18 09:28:28;;;;;;;;;0.75;0.00;;;;;14.18;69.59;100159.78;5112225;27;45578;-62
2022/02/18 09:30:55;;;;;;;;;0.00;0.00;;;;;14.21;69.44;100179.88;5111624;27;45451;-61
2022/02/18 09:33:22;;;;;;;;;2.00;0.50;;;;;14.25;69.54;100179.50;5108626;27;45295;-59
2022/02/18 09:35:49;;;;;;;;;1.00;0.00;;;;;14.28;69.52;100175.75;5109193;27;45327;-59
2022/02/18 09:38:16;;;;;;;;;3.00;0.00;;;;;14.30;69.54;100171.19;5102773;27;45369;-61
2022/02/18 09:40:42;;;;;;;;;0.75;0.00;;;;;14.30;69.86;100173.84;5111458;27;45374;-60
2022/02/18 09:43:08;;;;;;;;;1.00;1.00;;;;;14.28;70.41;100164.31;5110826;27;45313;-60
2022/02/18 09:45:34;;;;;;;;;4.00;0.00;;;;;14.32;70.22;100156.00;5110195;27;45654;-59
2022/02/18 09:48:00;;;;;;;;;0.00;0.00;;;;;14.31;70.49;100143.72;5104723;27;45459;-60
2022/02/18 09:50:28;;;;;;;;;0.00;0.00;;;;;14.28;70.51;100149.25;5109855;27;45486;-59
2022/02/18 09:52:54;;;;;;;;;0.00;0.00;;;;;14.25;71.08;100149.53;5093675;27;45478;-61
2022/02/18 09:55:20;;;;;;;;;0.25;0.00;;;;;14.24;71.50;100145.19;5107978;27;45365;-59
2022/02/18 09:57:51;;;;;;;;;1.50;0.00;;;;;14.24;71.18;100142.56;5107246;27;45467;-58
2022/02/18 10:00:17;;;;;;;;;1.25;0.00;;;;;14.23;71.46;100139.06;5108094;27;45228;-59
2022/02/18 10:02:42;;;;;;;;;0.00;0.00;;;;;14.26;71.73;100111.47;5088441;27;45358;-59
2022/02/18 10:05:08;;;;;;;;;0.75;0.00;;;;;14.29;71.55;100119.16;5111571;27;45240;-62
2022/02/18 10:07:54;;;;;;;;;0.00;0.00;;;;;14.27;71.95;100126.38;5112029;27;45576;-55
2022/02/18 10:10:20;;;;;;;;;0.25;0.00;;;;;14.27;71.87;100109.66;5109089;27;45399;-61
2022/02/18 10:12:46;;;;;;;;;0.00;0.00;;;;;14.27;71.97;100110.50;5107623;27;45701;-57
2022/02/18 10:15:11;;;;;;;;;0.00;0.00;;;;;14.26;72.15;100106.16;5107793;27;45347;-58
2022/02/18 10:17:41;;;;;;;;;0.00;0.00;;;;;14.30;72.10;100098.78;5106886;27;45525;-60
2022/02/18 10:20:22;;;;;;;;;0.00;0.00;;;;;14.30;71.89;100093.50;5111283;27;45550;-59
2022/02/18 10:23:04;;;;;;;;;1.00;0.00;;;;;14.27;71.73;100089.31;5110193;27;45395;-59
2022/02/18 10:25:35;;;;;;;;;0.00;0.00;;;;;14.27;71.65;100099.91;5104912;27;45520;-59
2022/02/18 10:28:03;;;;;;;;;1.00;1.00;;;;;14.28;71.56;100095.44;5104387;27;46189;-60
2022/02/18 10:30:31;;;;;;;;;0.00;0.00;;;;;14.29;71.64;100099.75;5105963;27;45410;-59
2022/02/18 10:33:09;;;;;;;;;1.00;0.00;;;;;14.27;71.14;100096.41;5111149;27;45318;-58
2022/02/18 10:35:36;;;;;;;;;1.75;0.00;;;;;14.22;71.50;100081.75;5108771;27;45378;-61
2022/02/18 10:38:02;;;;;;;;;0.00;0.00;;;;;14.21;71.70;100090.66;5108111;27;46246;-60
2022/02/18 10:40:28;;;;;;;;;0.00;0.00;;;;;14.21;71.90;100093.31;5105386;27;45420;-59
2022/02/18 10:43:05;;;;;;;;;0.00;0.00;;;;;14.24;71.65;100086.91;5110702;27;45334;-61
2022/02/18 10:45:31;;;;;;;;;0.00;0.00;;;;;14.25;71.91;100083.31;5110913;27;45461;-59
2022/02/18 10:48:06;;;;;;;;;0.00;0.00;;;;;14.25;71.17;100085.94;5105301;27;45369;-58
2022/02/18 10:50:32;;;;;;;;;2.75;1.00;;;;;14.22;71.53;100075.63;5109289;27;45441;-62
2022/02/18 10:53:20;;;;;;;;;0.00;0.00;;;;;14.26;71.78;100079.69;5110269;27;45552;-60
2022/02/18 10:55:57;;;;;;;;;0.00;0.00;;;;;14.29;71.52;100068.81;5107023;27;45264;-59
2022/02/18 10:58:30;;;;;;;;;0.75;0.75;;;;;14.35;71.52;100070.09;5105527;27;45553;-59
2022/02/18 11:01:11;;;;;;;;;1.25;1.00;;;;;14.40;71.29;100057.31;5102199;27;45308;-58
2022/02/18 11:03:46;;;;;;;;;0.25;0.00;;;;;14.47;71.07;100063.78;5111949;27;45378;-58
2022/02/18 11:06:14;;;;;;;;;1.50;0.75;;;;;14.52;71.01;100053.63;5105869;27;45423;-62
2022/02/18 11:08:52;;;;;;;;;1.25;1.00;;;;;14.61;70.81;100071.38;5089393;27;46678;-61
2022/02/18 11:11:18;;;;;;;;;1.50;0.00;;;;;14.64;70.62;100075.59;5112130;27;45224;-57
2022/02/18 11:13:44;;;;;;;;;1.00;0.25;;;;;14.62;70.81;100065.13;5110365;27;45354;-60
2022/02/18 11:16:14;;;;;;;;;0.00;0.00;;;;;14.62;70.75;100064.28;5111496;27;45372;-61
2022/02/18 11:18:41;;;;;;;;;1.00;0.00;;;;;14.62;70.99;100069.59;5105439;27;46003;-61
2022/02/18 11:21:12;;;;;;;;;1.50;0.00;;;;;14.56;71.34;100055.03;5111564;27;45158;-62